Belle Haven, Connecticut
Current Conditions -  °F | °C
As of 11:56 PM on Saturday 22 Nov 2014 (Local Time) from KHPN Reporting Station
Broken Clouds Broken Clouds  
Wind Chill: 38°   Ceiling: 11000
Heat Index: 42°   Visibility: 10mi
Dew Point: 17°   Wind: 6mph
Humidity: 37%   Direction: NA
Pressure: 30.17"   Gusts: NA
Location:  41.0502°N, 73.6235°W
Report Text: KHPN 230456Z VRB05KT 10SM BKN110 06/M08 A3017 RMK AO2 SLP221 T00561083 400561056
Loading
Personal Weather Stations






























Interactive Weather Map New forecast layout! Learn more

10-Day Weather Forecast

Advertisements
Track Severe Weather on mobile